^^
Saratoga-Weather Station Historical Data
Daily Summary for July 21, 2020 Units:  Both    English   Metric
Daily Weekly Monthly Yearly Custom
  High: Low: Average:
Temperature: 38.1 °F /  3.4 °C 28.9 °F /  -1.7 °C 32.7 °F /  0.4 °C
Dew Point: 32.9 °F /  0.5 °C 27.1 °F /  -2.7 °C 29.8 °F /  -1.2 °C
Humidity: 94% 80% 89%
Wind Speed: 4mph /  6.4km/h - 0.1mph /  0.2km/h
Wind Gust: 5mph /  8km/h - -
Wind- - ENE
Pressure: 30.8 in /  1043.3 hPa 30.6 in /  1037.2 hPa -
Precipitation: 0 in /  0.0 mm    
Historical Graphs
 
 
Tabular Data for July 21, 2020
Time Temperature Dew Point Pressure Wind Wind Speed Wind Gust Humidity Rainfall Rate (Hourly) solar
00:03 33.4 °F /  0.8 °C 30 °F /  -1.1 °C 30.8in /  1043.3hPa Calm   3mph /  4.8km/h 87% 0in /  0.0mm 0 W/m2
00:08 33.4 °F /  0.8 °C 30 °F /  -1.1 °C 30.8in /  1043.3hPa Calm     87% 0in /  0.0mm 0 W/m2
00:13 33.4 °F /  0.8 °C 30 °F /  -1.1 °C 30.8in /  1043.3hPa Calm     87% 0in /  0.0mm 0 W/m2
00:18 33.3 °F /  0.7 °C 29.8 °F /  -1.2 °C 30.8in /  1043.3hPa Calm     87% 0in /  0.0mm 0 W/m2
00:23 33.3 °F /  0.7 °C 29.8 °F /  -1.2 °C 30.8in /  1043.3hPa Calm     87% 0in /  0.0mm 0 W/m2
00:28 33.3 °F /  0.7 °C 29.8 °F /  -1.2 °C 30.8in /  1043.3hPa Calm   1mph /  1.6km/h 87% 0in /  0.0mm 0 W/m2
00:33 33.4 °F /  0.8 °C 30 °F /  -1.1 °C 30.8in /  1043.0hPa Calm     87% 0in /  0.0mm 0 W/m2
00:38 33.3 °F /  0.7 °C 29.8 °F /  -1.2 °C 30.8in /  1043.0hPa Calm   1mph /  1.6km/h 87% 0in /  0.0mm 0 W/m2
00:43 33.3 °F /  0.7 °C 29.8 °F /  -1.2 °C 30.8in /  1043.0hPa Calm     87% 0in /  0.0mm 0 W/m2
00:48 33.3 °F /  0.7 °C 29.8 °F /  -1.2 °C 30.8in /  1043.0hPa Calm     87% 0in /  0.0mm 0 W/m2
00:53 33.3 °F /  0.7 °C 29.8 °F /  -1.2 °C 30.8in /  1043.0hPa Calm     87% 0in /  0.0mm 0 W/m2
00:58 33.1 °F /  0.6 °C 29.7 °F /  -1.3 °C 30.8in /  1043.0hPa Calm     87% 0in /  0.0mm 0 W/m2
01:03 32.7 °F /  0.4 °C 29.3 °F /  -1.5 °C 30.8in /  1043.3hPa Calm     87% 0in /  0.0mm 0 W/m2
01:08 32.7 °F /  0.4 °C 29.5 °F /  -1.4 °C 30.8in /  1043.0hPa Calm     88% 0in /  0.0mm 0 W/m2
01:13 32.7 °F /  0.4 °C 29.5 °F /  -1.4 °C 30.8in /  1043.0hPa Calm   3mph /  4.8km/h 88% 0in /  0.0mm 0 W/m2
01:18 33.1 °F /  0.6 °C 29.8 °F /  -1.2 °C 30.8in /  1043.0hPa Calm     88% 0in /  0.0mm 0 W/m2
01:23 33.1 °F /  0.6 °C 29.7 °F /  -1.3 °C 30.8in /  1043.0hPa Calm   3mph /  4.8km/h 87% 0in /  0.0mm 0 W/m2
01:28 32.7 °F /  0.4 °C 29.3 °F /  -1.5 °C 30.8in /  1043.0hPa Calm     87% 0in /  0.0mm 0 W/m2
01:33 32.5 °F /  0.3 °C 29.1 °F /  -1.6 °C 30.8in /  1042.7hPa Calm     87% 0in /  0.0mm 0 W/m2
01:38 32.4 °F /  0.2 °C 29.1 °F /  -1.6 °C 30.8in /  1042.7hPa Calm   1mph /  1.6km/h 88% 0in /  0.0mm 0 W/m2
01:43 32.4 °F /  0.2 °C 29.1 °F /  -1.6 °C 30.8in /  1042.7hPa Calm     88% 0in /  0.0mm 0 W/m2
01:48 32.2 °F /  0.1 °C 28.9 °F /  -1.7 °C 30.8in /  1042.3hPa Calm     88% 0in /  0.0mm 0 W/m2
01:53 31.8 °F /  -0.1 °C 28.8 °F /  -1.8 °C 30.8in /  1042.3hPa Calm   2mph /  3.2km/h 88% 0in /  0.0mm 0 W/m2
01:58 31.8 °F /  -0.1 °C 28.9 °F /  -1.7 °C 30.8in /  1042.3hPa Calm     89% 0in /  0.0mm 0 W/m2
02:03 31.6 °F /  -0.2 °C 28.8 °F /  -1.8 °C 30.8in /  1042.3hPa Calm   4mph /  6.4km/h 89% 0in /  0.0mm 0 W/m2
02:08 31.6 °F /  -0.2 °C 28.8 °F /  -1.8 °C 30.8in /  1042.3hPa Calm     89% 0in /  0.0mm 0 W/m2
02:13 31.6 °F /  -0.2 °C 28.8 °F /  -1.8 °C 30.8in /  1042.3hPa Calm   4mph /  6.4km/h 89% 0in /  0.0mm 0 W/m2
02:18 31.5 °F /  -0.3 °C 28.6 °F /  -1.9 °C 30.8in /  1042.3hPa Calm   1mph /  1.6km/h 89% 0in /  0.0mm 0 W/m2
02:23 31.5 °F /  -0.3 °C 28.6 °F /  -1.9 °C 30.8in /  1042.3hPa Calm     89% 0in /  0.0mm 0 W/m2
02:29 31.5 °F /  -0.3 °C 28.9 °F /  -1.7 °C 30.8in /  1042.3hPa Calm   1mph /  1.6km/h 90% 0in /  0.0mm 0 W/m2
02:34 31.1 °F /  -0.5 °C 28.2 °F /  -2.1 °C 30.8in /  1042.3hPa Calm     89% 0in /  0.0mm 0 W/m2
02:39 30.9 °F /  -0.6 °C 28 °F /  -2.2 °C 30.8in /  1042.3hPa Calm     89% 0in /  0.0mm 0 W/m2
02:44 30.7 °F /  -0.7 °C 28.2 °F /  -2.1 °C 30.8in /  1042.3hPa Calm     90% 0in /  0.0mm 0 W/m2
02:49 30.6 °F /  -0.8 °C 28 °F /  -2.2 °C 30.8in /  1042.3hPa Calm     90% 0in /  0.0mm 0 W/m2
02:54 30.6 °F /  -0.8 °C 28.2 °F /  -2.1 °C 30.8in /  1042.3hPa Calm     91% 0in /  0.0mm 0 W/m2
02:59 30.6 °F /  -0.8 °C 28.2 °F /  -2.1 °C 30.8in /  1042.0hPa Calm     91% 0in /  0.0mm 0 W/m2
03:04 30.7 °F /  -0.7 °C 28.4 °F /  -2 °C 30.8in /  1042.0hPa Calm     91% 0in /  0.0mm 0 W/m2
03:09 31.1 °F /  -0.5 °C 28.8 °F /  -1.8 °C 30.8in /  1042.0hPa Calm     91% 0in /  0.0mm 0 W/m2
03:14 30.9 °F /  -0.6 °C 28.6 °F /  -1.9 °C 30.8in /  1042.0hPa Calm     91% 0in /  0.0mm 0 W/m2
03:19 30.7 °F /  -0.7 °C 28.4 °F /  -2 °C 30.8in /  1041.7hPa Calm     91% 0in /  0.0mm 0 W/m2
03:24 30.7 °F /  -0.7 °C 28.4 °F /  -2 °C 30.8in /  1041.7hPa Calm     91% 0in /  0.0mm 0 W/m2
03:29 30.7 °F /  -0.7 °C 28.4 °F /  -2 °C 30.8in /  1041.7hPa Calm   3mph /  4.8km/h 91% 0in /  0.0mm 0 W/m2
03:34 30.9 °F /  -0.6 °C 28.6 °F /  -1.9 °C 30.8in /  1041.7hPa Calm     91% 0in /  0.0mm 0 W/m2
03:39 30.7 °F /  -0.7 °C 28.4 °F /  -2 °C 30.8in /  1041.7hPa Calm   3mph /  4.8km/h 91% 0in /  0.0mm 0 W/m2
03:44 30.6 °F /  -0.8 °C 28.2 °F /  -2.1 °C 30.8in /  1041.7hPa Calm     91% 0in /  0.0mm 0 W/m2
03:49 30.6 °F /  -0.8 °C 28.2 °F /  -2.1 °C 30.8in /  1041.7hPa Calm     91% 0in /  0.0mm 0 W/m2
03:55 30.6 °F /  -0.8 °C 28.2 °F /  -2.1 °C 30.8in /  1041.7hPa Calm     91% 0in /  0.0mm 0 W/m2
04:00 30.6 °F /  -0.8 °C 28.6 °F /  -1.9 °C 30.8in /  1041.7hPa Calm     92% 0in /  0.0mm 0 W/m2
04:05 30.7 °F /  -0.7 °C 28.8 °F /  -1.8 °C 30.8in /  1041.3hPa Calm     92% 0in /  0.0mm 0 W/m2
04:10 30.7 °F /  -0.7 °C 28.8 °F /  -1.8 °C 30.8in /  1041.3hPa Calm     92% 0in /  0.0mm 0 W/m2
04:15 30.7 °F /  -0.7 °C 28.4 °F /  -2 °C 30.8in /  1041.3hPa Calm     91% 0in /  0.0mm 0 W/m2
04:20 30.6 °F /  -0.8 °C 28.2 °F /  -2.1 °C 30.8in /  1041.3hPa Calm     91% 0in /  0.0mm 0 W/m2
04:25 30.6 °F /  -0.8 °C 28.2 °F /  -2.1 °C 30.8in /  1041.3hPa Calm     91% 0in /  0.0mm 0 W/m2
04:30 30.4 °F /  -0.9 °C 28 °F /  -2.2 °C 30.8in /  1041.3hPa Calm     91% 0in /  0.0mm 0 W/m2
04:35 30.4 °F /  -0.9 °C 28 °F /  -2.2 °C 30.8in /  1041.3hPa Calm     91% 0in /  0.0mm 0 W/m2
04:40 30.4 °F /  -0.9 °C 28 °F /  -2.2 °C 30.8in /  1041.3hPa Calm     91% 0in /  0.0mm 0 W/m2
04:45 30 °F /  -1.1 °C 27.7 °F /  -2.4 °C 30.8in /  1041.3hPa Calm     91% 0in /  0.0mm 0 W/m2
04:50 30 °F /  -1.1 °C 27.7 °F /  -2.4 °C 30.8in /  1041.3hPa Calm     91% 0in /  0.0mm 0 W/m2
04:55 29.8 °F /  -1.2 °C 27.9 °F /  -2.3 °C 30.7in /  1041.0hPa Calm     92% 0in /  0.0mm 0 W/m2
05:00 29.7 °F /  -1.3 °C 27.7 °F /  -2.4 °C 30.7in /  1041.0hPa Calm     92% 0in /  0.0mm 0 W/m2
05:05 29.7 °F /  -1.3 °C 27.7 °F /  -2.4 °C 30.7in /  1041.0hPa Calm     92% 0in /  0.0mm 0 W/m2
05:10 29.7 °F /  -1.3 °C 27.7 °F /  -2.4 °C 30.7in /  1041.0hPa Calm     92% 0in /  0.0mm 0 W/m2
05:15 29.7 °F /  -1.3 °C 27.7 °F /  -2.4 °C 30.7in /  1041.0hPa Calm     92% 0in /  0.0mm 0 W/m2
05:20 29.7 °F /  -1.3 °C 27.9 °F /  -2.3 °C 30.7in /  1041.0hPa Calm     93% 0in /  0.0mm 0 W/m2
05:25 29.8 °F /  -1.2 °C 28 °F /  -2.2 °C 30.7in /  1041.0hPa Calm     93% 0in /  0.0mm 0 W/m2
05:30 29.8 °F /  -1.2 °C 27.9 °F /  -2.3 °C 30.7in /  1041.0hPa Calm     92% 0in /  0.0mm 0 W/m2
05:35 29.8 °F /  -1.2 °C 27.9 °F /  -2.3 °C 30.7in /  1041.0hPa Calm     92% 0in /  0.0mm 0 W/m2
05:40 29.7 °F /  -1.3 °C 27.7 °F /  -2.4 °C 30.7in /  1041.0hPa Calm     92% 0in /  0.0mm 0 W/m2
05:45 29.5 °F /  -1.4 °C 27.5 °F /  -2.5 °C 30.7in /  1041.0hPa Calm     92% 0in /  0.0mm 0 W/m2
05:50 29.3 °F /  -1.5 °C 27.3 °F /  -2.6 °C 30.7in /  1041.0hPa Calm     92% 0in /  0.0mm 0 W/m2
05:55 29.3 °F /  -1.5 °C 27.5 °F /  -2.5 °C 30.7in /  1041.0hPa Calm     93% 0in /  0.0mm 0 W/m2
06:00 29.1 °F /  -1.6 °C 27.1 °F /  -2.7 °C 30.8in /  1041.3hPa Calm     92% 0in /  0.0mm 0 W/m2
06:05 29.1 °F /  -1.6 °C 27.3 °F /  -2.6 °C 30.8in /  1041.3hPa Calm     93% 0in /  0.0mm 0 W/m2
06:10 29.1 °F /  -1.6 °C 27.3 °F /  -2.6 °C 30.7in /  1041.0hPa Calm     93% 0in /  0.0mm 0 W/m2
06:15 29.3 °F /  -1.5 °C 27.5 °F /  -2.5 °C 30.8in /  1041.3hPa Calm     93% 0in /  0.0mm 0 W/m2
06:20 29.5 °F /  -1.4 °C 27.7 °F /  -2.4 °C 30.8in /  1041.3hPa Calm     93% 0in /  0.0mm 0 W/m2
06:25 29.5 °F /  -1.4 °C 27.7 °F /  -2.4 °C 30.8in /  1041.3hPa Calm     93% 0in /  0.0mm 0 W/m2
06:30 29.3 °F /  -1.5 °C 27.5 °F /  -2.5 °C 30.8in /  1041.3hPa Calm     93% 0in /  0.0mm 0 W/m2
06:35 29.1 °F /  -1.6 °C 27.3 °F /  -2.6 °C 30.8in /  1041.3hPa Calm     93% 0in /  0.0mm 0 W/m2
06:40 29.1 °F /  -1.6 °C 27.3 °F /  -2.6 °C 30.8in /  1041.3hPa Calm     93% 0in /  0.0mm 0 W/m2
06:45 28.9 °F /  -1.7 °C 27.1 °F /  -2.7 °C 30.8in /  1041.3hPa Calm     93% 0in /  0.0mm 0 W/m2
06:51 28.9 °F /  -1.7 °C 27.1 °F /  -2.7 °C 30.8in /  1041.3hPa Calm     93% 0in /  0.0mm 0 W/m2
06:56 29.1 °F /  -1.6 °C 27.3 °F /  -2.6 °C 30.8in /  1041.3hPa Calm     93% 0in /  0.0mm 0 W/m2
07:01 29.1 °F /  -1.6 °C 27.3 °F /  -2.6 °C 30.8in /  1041.3hPa Calm     93% 0in /  0.0mm 0 W/m2
07:06 29.1 °F /  -1.6 °C 27.3 °F /  -2.6 °C 30.8in /  1041.3hPa Calm     93% 0in /  0.0mm 0 W/m2
07:11 29.3 °F /  -1.5 °C 27.5 °F /  -2.5 °C 30.8in /  1041.7hPa Calm     93% 0in /  0.0mm 0 W/m2
07:16 29.5 °F /  -1.4 °C 27.7 °F /  -2.4 °C 30.8in /  1041.7hPa Calm     93% 0in /  0.0mm 0 W/m2
07:21 29.5 °F /  -1.4 °C 27.7 °F /  -2.4 °C 30.8in /  1041.7hPa Calm     93% 0in /  0.0mm 0 W/m2
07:26 29.7 °F /  -1.3 °C 27.9 °F /  -2.3 °C 30.8in /  1041.7hPa Calm     93% 0in /  0.0mm 0 W/m2
07:31 29.7 °F /  -1.3 °C 27.9 °F /  -2.3 °C 30.8in /  1041.7hPa Calm     93% 0in /  0.0mm 0 W/m2
07:36 29.7 °F /  -1.3 °C 27.9 °F /  -2.3 °C 30.8in /  1041.7hPa Calm     93% 0in /  0.0mm 0 W/m2
07:41 29.7 °F /  -1.3 °C 27.9 °F /  -2.3 °C 30.8in /  1041.7hPa Calm     93% 0in /  0.0mm 0 W/m2
07:46 29.7 °F /  -1.3 °C 27.9 °F /  -2.3 °C 30.8in /  1041.7hPa Calm     93% 0in /  0.0mm 0 W/m2
07:51 29.7 °F /  -1.3 °C 27.9 °F /  -2.3 °C 30.8in /  1041.7hPa Calm     93% 0in /  0.0mm 0 W/m2
07:56 29.7 °F /  -1.3 °C 27.9 °F /  -2.3 °C 30.8in /  1041.7hPa Calm     93% 0in /  0.0mm 0 W/m2
08:01 29.7 °F /  -1.3 °C 27.9 °F /  -2.3 °C 30.8in /  1041.7hPa Calm     93% 0in /  0.0mm 0 W/m2
08:06 29.5 °F /  -1.4 °C 27.7 °F /  -2.4 °C 30.8in /  1041.7hPa Calm     93% 0in /  0.0mm 0 W/m2
08:11 29.5 °F /  -1.4 °C 27.7 °F /  -2.4 °C 30.8in /  1041.7hPa Calm     93% 0in /  0.0mm 0 W/m2
08:16 29.3 °F /  -1.5 °C 27.5 °F /  -2.5 °C 30.8in /  1041.7hPa Calm     93% 0in /  0.0mm 0 W/m2
08:21 29.5 °F /  -1.4 °C 27.7 °F /  -2.4 °C 30.8in /  1041.7hPa Calm     93% 0in /  0.0mm 0 W/m2
08:26 29.7 °F /  -1.3 °C 27.9 °F /  -2.3 °C 30.8in /  1041.7hPa Calm     93% 0in /  0.0mm 5 W/m2
08:31 29.5 °F /  -1.4 °C 27.7 °F /  -2.4 °C 30.8in /  1041.7hPa Calm     93% 0in /  0.0mm 7 W/m2
08:36 29.5 °F /  -1.4 °C 27.7 °F /  -2.4 °C 30.8in /  1041.7hPa Calm     93% 0in /  0.0mm 9 W/m2
08:41 29.5 °F /  -1.4 °C 27.7 °F /  -2.4 °C 30.8in /  1041.7hPa Calm     93% 0in /  0.0mm 11 W/m2
08:46 29.5 °F /  -1.4 °C 27.7 °F /  -2.4 °C 30.8in /  1041.7hPa Calm     93% 0in /  0.0mm 12 W/m2
08:51 29.5 °F /  -1.4 °C 27.7 °F /  -2.4 °C 30.8in /  1041.7hPa Calm     93% 0in /  0.0mm 12 W/m2
08:56 29.5 °F /  -1.4 °C 27.7 °F /  -2.4 °C 30.8in /  1041.7hPa Calm     93% 0in /  0.0mm 14 W/m2
09:01 29.3 °F /  -1.5 °C 27.5 °F /  -2.5 °C 30.8in /  1041.7hPa Calm     93% 0in /  0.0mm 16 W/m2
09:06 29.3 °F /  -1.5 °C 27.5 °F /  -2.5 °C 30.8in /  1041.7hPa Calm     93% 0in /  0.0mm 16 W/m2
09:11 29.5 °F /  -1.4 °C 27.7 °F /  -2.4 °C 30.8in /  1041.7hPa Calm     93% 0in /  0.0mm 18 W/m2
09:16 29.5 °F /  -1.4 °C 27.7 °F /  -2.4 °C 30.8in /  1041.7hPa Calm     93% 0in /  0.0mm 19 W/m2
09:21 29.7 °F /  -1.3 °C 27.9 °F /  -2.3 °C 30.8in /  1041.7hPa Calm     93% 0in /  0.0mm 19 W/m2
09:26 29.7 °F /  -1.3 °C 27.9 °F /  -2.3 °C 30.8in /  1041.7hPa Calm     93% 0in /  0.0mm 21 W/m2
09:31 29.7 °F /  -1.3 °C 27.9 °F /  -2.3 °C 30.8in /  1041.7hPa Calm     93% 0in /  0.0mm 21 W/m2
09:36 29.7 °F /  -1.3 °C 27.9 °F /  -2.3 °C 30.8in /  1041.7hPa Calm     93% 0in /  0.0mm 26 W/m2
09:41 29.8 °F /  -1.2 °C 28 °F /  -2.2 °C 30.8in /  1041.7hPa Calm     93% 0in /  0.0mm 25 W/m2
09:46 30 °F /  -1.1 °C 28.2 °F /  -2.1 °C 30.8in /  1042.0hPa Calm     93% 0in /  0.0mm 25 W/m2
09:51 30 °F /  -1.1 °C 28.2 °F /  -2.1 °C 30.8in /  1042.0hPa Calm     93% 0in /  0.0mm 25 W/m2
09:57 30.2 °F /  -1 °C 28.4 °F /  -2 °C 30.8in /  1042.0hPa Calm     93% 0in /  0.0mm 25 W/m2
10:02 30.4 °F /  -0.9 °C 28.6 °F /  -1.9 °C 30.8in /  1042.0hPa Calm     93% 0in /  0.0mm 26 W/m2
10:07 30.6 °F /  -0.8 °C 28.8 °F /  -1.8 °C 30.8in /  1042.0hPa Calm     93% 0in /  0.0mm 28 W/m2
10:12 30.7 °F /  -0.7 °C 28.9 °F /  -1.7 °C 30.8in /  1041.7hPa Calm     93% 0in /  0.0mm 28 W/m2
10:17 30.7 °F /  -0.7 °C 28.9 °F /  -1.7 °C 30.8in /  1041.7hPa Calm     93% 0in /  0.0mm 28 W/m2
10:22 30.9 °F /  -0.6 °C 29.1 °F /  -1.6 °C 30.8in /  1041.7hPa Calm     93% 0in /  0.0mm 32 W/m2
10:27 31.1 °F /  -0.5 °C 29.3 °F /  -1.5 °C 30.8in /  1041.7hPa Calm     93% 0in /  0.0mm 32 W/m2
10:32 31.3 °F /  -0.4 °C 29.3 °F /  -1.5 °C 30.8in /  1041.7hPa Calm     92% 0in /  0.0mm 30 W/m2
10:37 31.5 °F /  -0.3 °C 29.7 °F /  -1.3 °C 30.8in /  1041.7hPa Calm     93% 0in /  0.0mm 33 W/m2
10:42 31.8 °F /  -0.1 °C 30 °F /  -1.1 °C 30.8in /  1041.7hPa Calm     93% 0in /  0.0mm 30 W/m2
10:47 32.5 °F /  0.3 °C 30.6 °F /  -0.8 °C 30.8in /  1041.7hPa Calm     92% 0in /  0.0mm 35 W/m2
10:52 32.9 °F /  0.5 °C 30.6 °F /  -0.8 °C 30.8in /  1041.7hPa Calm     91% 0in /  0.0mm 39 W/m2
10:57 33.3 °F /  0.7 °C 30.6 °F /  -0.8 °C 30.8in /  1041.7hPa Calm     90% 0in /  0.0mm 33 W/m2
11:02 33.4 °F /  0.8 °C 30.6 °F /  -0.8 °C 30.8in /  1041.7hPa Calm     89% 0in /  0.0mm 39 W/m2
11:07 33.6 °F /  0.9 °C 30.4 °F /  -0.9 °C 30.8in /  1041.7hPa Calm     88% 0in /  0.0mm 32 W/m2
11:12 33.6 °F /  0.9 °C 30.4 °F /  -0.9 °C 30.8in /  1041.7hPa Calm     88% 0in /  0.0mm 33 W/m2
11:17 33.8 °F /  1 °C 30.4 °F /  -0.9 °C 30.8in /  1041.3hPa Calm     87% 0in /  0.0mm 49 W/m2
11:22 34 °F /  1.1 °C 30.6 °F /  -0.8 °C 30.8in /  1041.3hPa Calm     87% 0in /  0.0mm 37 W/m2
11:27 34 °F /  1.1 °C 30.6 °F /  -0.8 °C 30.8in /  1041.3hPa Calm     87% 0in /  0.0mm 40 W/m2
11:32 34.2 °F /  1.2 °C 30.7 °F /  -0.7 °C 30.8in /  1041.3hPa Calm   2mph /  3.2km/h 87% 0in /  0.0mm 35 W/m2
11:37 34.3 °F /  1.3 °C 30.9 °F /  -0.6 °C 30.8in /  1041.3hPa Calm   1mph /  1.6km/h 87% 0in /  0.0mm 35 W/m2
11:42 34.5 °F /  1.4 °C 30.7 °F /  -0.7 °C 30.8in /  1041.3hPa Calm   1mph /  1.6km/h 86% 0in /  0.0mm 60 W/m2
11:47 34.7 °F /  1.5 °C 30.9 °F /  -0.6 °C 30.8in /  1041.3hPa Calm     86% 0in /  0.0mm 46 W/m2
11:52 34.9 °F /  1.6 °C 31.1 °F /  -0.5 °C 30.8in /  1041.3hPa Calm     86% 0in /  0.0mm 37 W/m2
11:57 35.1 °F /  1.7 °C 30.9 °F /  -0.6 °C 30.8in /  1041.3hPa Calm     85% 0in /  0.0mm 53 W/m2
12:02 35.2 °F /  1.8 °C 31.1 °F /  -0.5 °C 30.8in /  1041.3hPa Calm     85% 0in /  0.0mm 33 W/m2
12:07 35.2 °F /  1.8 °C 31.1 °F /  -0.5 °C 30.7in /  1041.0hPa Calm     85% 0in /  0.0mm 39 W/m2
12:12 35.2 °F /  1.8 °C 31.1 °F /  -0.5 °C 30.7in /  1041.0hPa Calm     85% 0in /  0.0mm 33 W/m2
12:17 35.4 °F /  1.9 °C 31.3 °F /  -0.4 °C 30.7in /  1041.0hPa Calm     85% 0in /  0.0mm 37 W/m2
12:22 35.4 °F /  1.9 °C 31.1 °F /  -0.5 °C 30.7in /  1041.0hPa Calm   1mph /  1.6km/h 84% 0in /  0.0mm 51 W/m2
12:27 35.6 °F /  2 °C 31.5 °F /  -0.3 °C 30.7in /  1041.0hPa Calm     85% 0in /  0.0mm 46 W/m2
12:32 35.8 °F /  2.1 °C 31.5 °F /  -0.3 °C 30.7in /  1041.0hPa Calm     84% 0in /  0.0mm 67 W/m2
12:37 36 °F /  2.2 °C 31.6 °F /  -0.2 °C 30.7in /  1041.0hPa Calm   2mph /  3.2km/h 84% 0in /  0.0mm 44 W/m2
12:42 36.1 °F /  2.3 °C 31.5 °F /  -0.3 °C 30.7in /  1040.6hPa ENE 2mph /  3.2km/h 2mph /  3.2km/h 83% 0in /  0.0mm 40 W/m2
12:47 36.3 °F /  2.4 °C 31.6 °F /  -0.2 °C 30.7in /  1040.6hPa NE 2.9mph /  4.7km/h 4mph /  6.4km/h 83% 0in /  0.0mm 42 W/m2
12:52 36.5 °F /  2.5 °C 31.8 °F /  -0.1 °C 30.7in /  1040.6hPa Calm     83% 0in /  0.0mm 40 W/m2
12:57 36.7 °F /  2.6 °C 32 °F /  0 °C 30.7in /  1040.6hPa NE 2mph /  3.2km/h 4mph /  6.4km/h 83% 0in /  0.0mm 39 W/m2
13:02 36.7 °F /  2.6 °C 32 °F /  0 °C 30.7in /  1040.6hPa ESE 0.9mph /  1.4km/h 4mph /  6.4km/h 83% 0in /  0.0mm 37 W/m2
13:07 36.9 °F /  2.7 °C 32.2 °F /  0.1 °C 30.7in /  1040.6hPa NE 4mph /  6.4km/h 5mph /  8km/h 83% 0in /  0.0mm 39 W/m2
13:12 37 °F /  2.8 °C 32 °F /  0 °C 30.7in /  1040.6hPa Calm   1mph /  1.6km/h 82% 0in /  0.0mm 40 W/m2
13:17 37 °F /  2.8 °C 32 °F /  0 °C 30.7in /  1040.3hPa Calm     82% 0in /  0.0mm 37 W/m2
13:22 37.2 °F /  2.9 °C 32.2 °F /  0.1 °C 30.7in /  1040.3hPa Calm   1mph /  1.6km/h 82% 0in /  0.0mm 35 W/m2
13:27 37.2 °F /  2.9 °C 32 °F /  0 °C 30.7in /  1040.3hPa Calm     81% 0in /  0.0mm 40 W/m2
13:32 37.4 °F /  3 °C 32.4 °F /  0.2 °C 30.7in /  1040.3hPa ENE 2.9mph /  4.7km/h 4mph /  6.4km/h 82% 0in /  0.0mm 39 W/m2
13:37 37.6 °F /  3.1 °C 32.4 °F /  0.2 °C 30.7in /  1040.3hPa Calm   1mph /  1.6km/h 81% 0in /  0.0mm 46 W/m2
13:42 37.8 °F /  3.2 °C 32.5 °F /  0.3 °C 30.7in /  1040.0hPa Calm   4mph /  6.4km/h 81% 0in /  0.0mm 35 W/m2
13:47 37.8 °F /  3.2 °C 32.5 °F /  0.3 °C 30.7in /  1040.0hPa NE 0.9mph /  1.4km/h 1mph /  1.6km/h 81% 0in /  0.0mm 33 W/m2
13:52 37.8 °F /  3.2 °C 32.5 °F /  0.3 °C 30.7in /  1040.0hPa Calm   4mph /  6.4km/h 81% 0in /  0.0mm 39 W/m2
13:57 37.8 °F /  3.2 °C 32.5 °F /  0.3 °C 30.7in /  1040.0hPa ESE 0.9mph /  1.4km/h 1mph /  1.6km/h 81% 0in /  0.0mm 37 W/m2
14:02 37.8 °F /  3.2 °C 32.5 °F /  0.3 °C 30.7in /  1040.0hPa Calm   2mph /  3.2km/h 81% 0in /  0.0mm 39 W/m2
14:07 37.8 °F /  3.2 °C 32.5 °F /  0.3 °C 30.7in /  1039.6hPa East 2mph /  3.2km/h 2mph /  3.2km/h 81% 0in /  0.0mm 33 W/m2
14:12 37.9 °F /  3.3 °C 32.7 °F /  0.4 °C 30.7in /  1039.6hPa Calm     81% 0in /  0.0mm 35 W/m2
14:17 37.9 °F /  3.3 °C 32.4 °F /  0.2 °C 30.7in /  1039.6hPa NE 0.9mph /  1.4km/h 1mph /  1.6km/h 80% 0in /  0.0mm 44 W/m2
14:22 38.1 °F /  3.4 °C 32.5 °F /  0.3 °C 30.7in /  1039.6hPa ENE 2mph /  3.2km/h 3mph /  4.8km/h 80% 0in /  0.0mm 33 W/m2
14:28 38.1 °F /  3.4 °C 32.5 °F /  0.3 °C 30.7in /  1039.6hPa Calm     80% 0in /  0.0mm 32 W/m2
14:33 38.1 °F /  3.4 °C 32.5 °F /  0.3 °C 30.7in /  1039.6hPa Calm   2mph /  3.2km/h 80% 0in /  0.0mm 32 W/m2
14:38 37.9 °F /  3.3 °C 32.7 °F /  0.4 °C 30.7in /  1039.6hPa Calm     81% 0in /  0.0mm 33 W/m2
14:43 37.8 °F /  3.2 °C 32.5 °F /  0.3 °C 30.7in /  1039.6hPa Calm   1mph /  1.6km/h 81% 0in /  0.0mm 30 W/m2
14:48 37.6 °F /  3.1 °C 32.5 °F /  0.3 °C 30.7in /  1039.6hPa Calm     82% 0in /  0.0mm 30 W/m2
14:53 37.4 °F /  3 °C 32.4 °F /  0.2 °C 30.7in /  1039.6hPa Calm     82% 0in /  0.0mm 30 W/m2
14:58 37.2 °F /  2.9 °C 32.2 °F /  0.1 °C 30.7in /  1039.3hPa Calm     82% 0in /  0.0mm 28 W/m2
15:03 36.9 °F /  2.7 °C 32.2 °F /  0.1 °C 30.7in /  1039.3hPa Calm     83% 0in /  0.0mm 28 W/m2
15:08 36.9 °F /  2.7 °C 32.2 °F /  0.1 °C 30.7in /  1039.3hPa Calm     83% 0in /  0.0mm 26 W/m2
15:13 36.5 °F /  2.5 °C 32.2 °F /  0.1 °C 30.7in /  1039.3hPa Calm     84% 0in /  0.0mm 26 W/m2
15:18 36.3 °F /  2.4 °C 32.2 °F /  0.1 °C 30.7in /  1039.3hPa Calm     85% 0in /  0.0mm 25 W/m2
15:23 36.1 °F /  2.3 °C 32 °F /  0 °C 30.7in /  1039.3hPa Calm   2mph /  3.2km/h 85% 0in /  0.0mm 26 W/m2
15:28 36.1 °F /  2.3 °C 32 °F /  0 °C 30.7in /  1039.3hPa Calm     85% 0in /  0.0mm 25 W/m2
15:33 36.1 °F /  2.3 °C 32 °F /  0 °C 30.7in /  1039.3hPa Calm     85% 0in /  0.0mm 25 W/m2
15:38 36.1 °F /  2.3 °C 32.4 °F /  0.2 °C 30.7in /  1038.9hPa Calm     86% 0in /  0.0mm 23 W/m2
15:43 36.1 °F /  2.3 °C 32.4 °F /  0.2 °C 30.7in /  1038.9hPa Calm   1mph /  1.6km/h 86% 0in /  0.0mm 23 W/m2
15:48 36 °F /  2.2 °C 32.2 °F /  0.1 °C 30.7in /  1038.9hPa Calm     86% 0in /  0.0mm 23 W/m2
15:53 36.1 °F /  2.3 °C 32.4 °F /  0.2 °C 30.7in /  1038.9hPa Calm     86% 0in /  0.0mm 21 W/m2
15:58 36.1 °F /  2.3 °C 32.4 °F /  0.2 °C 30.7in /  1038.9hPa Calm     86% 0in /  0.0mm 21 W/m2
16:03 36 °F /  2.2 °C 31.8 °F /  -0.1 °C 30.7in /  1038.9hPa Calm     85% 0in /  0.0mm 21 W/m2
16:09 36 °F /  2.2 °C 32.2 °F /  0.1 °C 30.7in /  1038.9hPa Calm     86% 0in /  0.0mm 19 W/m2
16:14 35.8 °F /  2.1 °C 32 °F /  0 °C 30.7in /  1038.6hPa Calm     86% 0in /  0.0mm 18 W/m2
16:19 35.8 °F /  2.1 °C 32 °F /  0 °C 30.7in /  1038.6hPa Calm     86% 0in /  0.0mm 18 W/m2
16:24 35.8 °F /  2.1 °C 32 °F /  0 °C 30.7in /  1038.6hPa Calm     86% 0in /  0.0mm 18 W/m2
16:29 35.6 °F /  2 °C 32.2 °F /  0.1 °C 30.7in /  1038.6hPa Calm     87% 0in /  0.0mm 16 W/m2
16:34 35.8 °F /  2.1 °C 32.4 °F /  0.2 °C 30.7in /  1038.6hPa Calm     87% 0in /  0.0mm 16 W/m2
16:39 35.8 °F /  2.1 °C 32.4 °F /  0.2 °C 30.7in /  1038.6hPa Calm     87% 0in /  0.0mm 14 W/m2
16:44 35.6 °F /  2 °C 32.2 °F /  0.1 °C 30.7in /  1038.6hPa Calm     87% 0in /  0.0mm 12 W/m2
16:49 35.6 °F /  2 °C 32.2 °F /  0.1 °C 30.7in /  1038.6hPa Calm   1mph /  1.6km/h 87% 0in /  0.0mm 12 W/m2
16:54 35.6 °F /  2 °C 32.2 °F /  0.1 °C 30.7in /  1038.6hPa NNE 2.9mph /  4.7km/h 3mph /  4.8km/h 87% 0in /  0.0mm 11 W/m2
16:59 36 °F /  2.2 °C 32.5 °F /  0.3 °C 30.7in /  1038.6hPa NE 2mph /  3.2km/h 2mph /  3.2km/h 87% 0in /  0.0mm 9 W/m2
17:04 36.1 °F /  2.3 °C 32.7 °F /  0.4 °C 30.7in /  1038.6hPa Calm   1mph /  1.6km/h 87% 0in /  0.0mm 7 W/m2
17:09 36.7 °F /  2.6 °C 32.9 °F /  0.5 °C 30.7in /  1038.6hPa Calm   1mph /  1.6km/h 86% 0in /  0.0mm 5 W/m2
17:14 36.9 °F /  2.7 °C 32.7 °F /  0.4 °C 30.7in /  1038.6hPa Calm     85% 0in /  0.0mm 0 W/m2
17:19 36.9 °F /  2.7 °C 32.5 °F /  0.3 °C 30.7in /  1038.3hPa Calm     84% 0in /  0.0mm 0 W/m2
17:24 36.7 °F /  2.6 °C 32.4 °F /  0.2 °C 30.7in /  1038.6hPa Calm     84% 0in /  0.0mm 0 W/m2
17:29 36.5 °F /  2.5 °C 32.2 °F /  0.1 °C 30.7in /  1038.6hPa Calm     84% 0in /  0.0mm 0 W/m2
17:34 36.3 °F /  2.4 °C 32 °F /  0 °C 30.7in /  1038.6hPa Calm   1mph /  1.6km/h 84% 0in /  0.0mm 0 W/m2
17:39 36.1 °F /  2.3 °C 31.8 °F /  -0.1 °C 30.7in /  1038.6hPa Calm     84% 0in /  0.0mm 0 W/m2
17:44 36 °F /  2.2 °C 31.6 °F /  -0.2 °C 30.7in /  1038.6hPa Calm   1mph /  1.6km/h 84% 0in /  0.0mm 0 W/m2
17:49 35.8 °F /  2.1 °C 31.6 °F /  -0.2 °C 30.7in /  1038.6hPa Calm     85% 0in /  0.0mm 0 W/m2
17:54 35.4 °F /  1.9 °C 31.3 °F /  -0.4 °C 30.7in /  1038.3hPa Calm     85% 0in /  0.0mm 0 W/m2
17:59 35.2 °F /  1.8 °C 31.5 °F /  -0.3 °C 30.7in /  1038.3hPa Calm     86% 0in /  0.0mm 0 W/m2
18:04 35.1 °F /  1.7 °C 31.3 °F /  -0.4 °C 30.7in /  1038.3hPa Calm     86% 0in /  0.0mm 0 W/m2
18:09 35.1 °F /  1.7 °C 31.6 °F /  -0.2 °C 30.7in /  1038.3hPa Calm     87% 0in /  0.0mm 0 W/m2
18:14 34.9 °F /  1.6 °C 31.5 °F /  -0.3 °C 30.7in /  1038.3hPa Calm     87% 0in /  0.0mm 0 W/m2
18:19 34.7 °F /  1.5 °C 31.3 °F /  -0.4 °C 30.7in /  1038.3hPa Calm     87% 0in /  0.0mm 0 W/m2
18:24 34.5 °F /  1.4 °C 31.3 °F /  -0.4 °C 30.7in /  1038.3hPa Calm     88% 0in /  0.0mm 0 W/m2
18:29 34.5 °F /  1.4 °C 31.3 °F /  -0.4 °C 30.7in /  1038.3hPa Calm     88% 0in /  0.0mm 0 W/m2
18:34 34.3 °F /  1.3 °C 31.1 °F /  -0.5 °C 30.7in /  1038.3hPa Calm     88% 0in /  0.0mm 0 W/m2
18:39 34.2 °F /  1.2 °C 30.9 °F /  -0.6 °C 30.7in /  1038.3hPa Calm     88% 0in /  0.0mm 0 W/m2
18:44 34 °F /  1.1 °C 30.7 °F /  -0.7 °C 30.7in /  1038.3hPa Calm     88% 0in /  0.0mm 0 W/m2
18:49 33.8 °F /  1 °C 30.9 °F /  -0.6 °C 30.7in /  1038.3hPa Calm     89% 0in /  0.0mm 0 W/m2
18:54 33.8 °F /  1 °C 30.9 °F /  -0.6 °C 30.7in /  1038.3hPa Calm     89% 0in /  0.0mm 0 W/m2
18:59 33.6 °F /  0.9 °C 30.7 °F /  -0.7 °C 30.7in /  1038.3hPa Calm     89% 0in /  0.0mm 0 W/m2
19:04 33.4 °F /  0.8 °C 30.6 °F /  -0.8 °C 30.7in /  1038.3hPa Calm     89% 0in /  0.0mm 0 W/m2
19:09 33.4 °F /  0.8 °C 30.7 °F /  -0.7 °C 30.7in /  1038.3hPa Calm     90% 0in /  0.0mm 0 W/m2
19:14 33.4 °F /  0.8 °C 30.7 °F /  -0.7 °C 30.7in /  1038.3hPa Calm     90% 0in /  0.0mm 0 W/m2
19:19 33.4 °F /  0.8 °C 30.7 °F /  -0.7 °C 30.7in /  1038.3hPa Calm     90% 0in /  0.0mm 0 W/m2
19:24 33.6 °F /  0.9 °C 30.9 °F /  -0.6 °C 30.7in /  1037.9hPa Calm     90% 0in /  0.0mm 0 W/m2
19:29 33.8 °F /  1 °C 31.1 °F /  -0.5 °C 30.7in /  1038.3hPa Calm     90% 0in /  0.0mm 0 W/m2
19:34 33.8 °F /  1 °C 31.1 °F /  -0.5 °C 30.7in /  1038.3hPa Calm     90% 0in /  0.0mm 0 W/m2
19:39 33.6 °F /  0.9 °C 30.9 °F /  -0.6 °C 30.7in /  1038.3hPa Calm     90% 0in /  0.0mm 0 W/m2
19:44 33.6 °F /  0.9 °C 30.9 °F /  -0.6 °C 30.7in /  1038.3hPa Calm     90% 0in /  0.0mm 0 W/m2
19:49 33.6 °F /  0.9 °C 30.9 °F /  -0.6 °C 30.7in /  1038.3hPa Calm     90% 0in /  0.0mm 0 W/m2
19:54 33.4 °F /  0.8 °C 30.7 °F /  -0.7 °C 30.7in /  1038.3hPa Calm     90% 0in /  0.0mm 0 W/m2
19:59 33.3 °F /  0.7 °C 30.6 °F /  -0.8 °C 30.7in /  1038.3hPa Calm     90% 0in /  0.0mm 0 W/m2
20:04 33.1 °F /  0.6 °C 30.4 °F /  -0.9 °C 30.7in /  1038.3hPa Calm     90% 0in /  0.0mm 0 W/m2
20:09 33.1 °F /  0.6 °C 30.4 °F /  -0.9 °C 30.7in /  1038.3hPa Calm     90% 0in /  0.0mm 0 W/m2
20:14 32.9 °F /  0.5 °C 30.4 °F /  -0.9 °C 30.7in /  1038.3hPa Calm     90% 0in /  0.0mm 0 W/m2
20:19 32.7 °F /  0.4 °C 30.2 °F /  -1 °C 30.7in /  1038.3hPa Calm     90% 0in /  0.0mm 0 W/m2
20:24 32.5 °F /  0.3 °C 30 °F /  -1.1 °C 30.7in /  1038.3hPa Calm     90% 0in /  0.0mm 0 W/m2
20:29 32.5 °F /  0.3 °C 30.2 °F /  -1 °C 30.7in /  1037.9hPa Calm     91% 0in /  0.0mm 0 W/m2
20:34 32.4 °F /  0.2 °C 30 °F /  -1.1 °C 30.7in /  1037.9hPa Calm     91% 0in /  0.0mm 0 W/m2
20:39 32.4 °F /  0.2 °C 30 °F /  -1.1 °C 30.7in /  1037.9hPa Calm     91% 0in /  0.0mm 0 W/m2
20:44 32.2 °F /  0.1 °C 29.8 °F /  -1.2 °C 30.7in /  1037.9hPa Calm     91% 0in /  0.0mm 0 W/m2
20:49 31.8 °F /  -0.1 °C 29.5 °F /  -1.4 °C 30.7in /  1037.9hPa Calm     91% 0in /  0.0mm 0 W/m2
20:54 31.6 °F /  -0.2 °C 29.3 °F /  -1.5 °C 30.7in /  1037.9hPa Calm     91% 0in /  0.0mm 0 W/m2
20:59 31.5 °F /  -0.3 °C 29.1 °F /  -1.6 °C 30.7in /  1037.9hPa Calm     91% 0in /  0.0mm 0 W/m2
21:04 31.3 °F /  -0.4 °C 28.9 °F /  -1.7 °C 30.7in /  1037.9hPa Calm     91% 0in /  0.0mm 0 W/m2
21:09 31.1 °F /  -0.5 °C 28.8 °F /  -1.8 °C 30.7in /  1037.9hPa Calm     91% 0in /  0.0mm 0 W/m2
21:14 30.9 °F /  -0.6 °C 28.9 °F /  -1.7 °C 30.7in /  1037.9hPa Calm     92% 0in /  0.0mm 0 W/m2
21:19 30.9 °F /  -0.6 °C 28.9 °F /  -1.7 °C 30.7in /  1037.9hPa Calm     92% 0in /  0.0mm 0 W/m2
21:24 30.9 °F /  -0.6 °C 28.9 °F /  -1.7 °C 30.7in /  1037.9hPa Calm     92% 0in /  0.0mm 0 W/m2
21:29 30.7 °F /  -0.7 °C 28.8 °F /  -1.8 °C 30.7in /  1037.9hPa Calm     92% 0in /  0.0mm 0 W/m2
21:34 30.7 °F /  -0.7 °C 28.8 °F /  -1.8 °C 30.7in /  1037.9hPa Calm     92% 0in /  0.0mm 0 W/m2
21:39 30.7 °F /  -0.7 °C 28.9 °F /  -1.7 °C 30.7in /  1037.9hPa Calm     93% 0in /  0.0mm 0 W/m2
21:44 30.7 °F /  -0.7 °C 28.9 °F /  -1.7 °C 30.7in /  1037.9hPa Calm     93% 0in /  0.0mm 0 W/m2
21:49 30.9 °F /  -0.6 °C 29.1 °F /  -1.6 °C 30.6in /  1037.6hPa Calm     93% 0in /  0.0mm 0 W/m2
21:54 31.1 °F /  -0.5 °C 29.3 °F /  -1.5 °C 30.6in /  1037.6hPa Calm     93% 0in /  0.0mm 0 W/m2
21:59 30.9 °F /  -0.6 °C 29.1 °F /  -1.6 °C 30.6in /  1037.6hPa Calm     93% 0in /  0.0mm 0 W/m2
22:04 30.9 °F /  -0.6 °C 29.1 °F /  -1.6 °C 30.6in /  1037.6hPa Calm     93% 0in /  0.0mm 0 W/m2
22:09 30.9 °F /  -0.6 °C 29.1 °F /  -1.6 °C 30.6in /  1037.6hPa Calm     93% 0in /  0.0mm 0 W/m2
22:14 30.9 °F /  -0.6 °C 29.1 °F /  -1.6 °C 30.6in /  1037.6hPa Calm     93% 0in /  0.0mm 0 W/m2
22:19 30.9 °F /  -0.6 °C 29.1 °F /  -1.6 °C 30.6in /  1037.6hPa Calm     93% 0in /  0.0mm 0 W/m2
22:24 30.9 °F /  -0.6 °C 29.1 °F /  -1.6 °C 30.6in /  1037.6hPa Calm     93% 0in /  0.0mm 0 W/m2
22:29 30.7 °F /  -0.7 °C 28.9 °F /  -1.7 °C 30.6in /  1037.6hPa Calm     93% 0in /  0.0mm 0 W/m2
22:34 30.7 °F /  -0.7 °C 28.9 °F /  -1.7 °C 30.6in /  1037.6hPa Calm     93% 0in /  0.0mm 0 W/m2
22:39 30.6 °F /  -0.8 °C 28.8 °F /  -1.8 °C 30.6in /  1037.6hPa Calm     93% 0in /  0.0mm 0 W/m2
22:44 30.6 °F /  -0.8 °C 28.8 °F /  -1.8 °C 30.6in /  1037.6hPa Calm     93% 0in /  0.0mm 0 W/m2
22:49 30.4 °F /  -0.9 °C 28.6 °F /  -1.9 °C 30.6in /  1037.6hPa Calm     93% 0in /  0.0mm 0 W/m2
22:54 30.4 °F /  -0.9 °C 28.6 °F /  -1.9 °C 30.6in /  1037.6hPa Calm     93% 0in /  0.0mm 0 W/m2
22:59 30.6 °F /  -0.8 °C 29.1 °F /  -1.6 °C 30.6in /  1037.2hPa Calm     94% 0in /  0.0mm 0 W/m2
23:04 30.6 °F /  -0.8 °C 29.1 °F /  -1.6 °C 30.6in /  1037.6hPa Calm     94% 0in /  0.0mm 0 W/m2
23:10 30.6 °F /  -0.8 °C 28.8 °F /  -1.8 °C 30.6in /  1037.6hPa Calm     93% 0in /  0.0mm 0 W/m2
23:15 30.4 °F /  -0.9 °C 28.9 °F /  -1.7 °C 30.6in /  1037.6hPa Calm     94% 0in /  0.0mm 0 W/m2
23:20 30.4 °F /  -0.9 °C 28.9 °F /  -1.7 °C 30.6in /  1037.6hPa Calm     94% 0in /  0.0mm 0 W/m2
23:25 30.4 °F /  -0.9 °C 28.9 °F /  -1.7 °C 30.6in /  1037.6hPa Calm     94% 0in /  0.0mm 0 W/m2
23:30 30.4 °F /  -0.9 °C 28.9 °F /  -1.7 °C 30.6in /  1037.6hPa SE 0.9mph /  1.4km/h 2mph /  3.2km/h 94% 0in /  0.0mm 0 W/m2
23:35 30.6 °F /  -0.8 °C 29.1 °F /  -1.6 °C 30.6in /  1037.2hPa Calm     94% 0in /  0.0mm 0 W/m2
23:40 30.7 °F /  -0.7 °C 29.3 °F /  -1.5 °C 30.6in /  1037.2hPa Calm     94% 0in /  0.0mm 0 W/m2
23:45 30.7 °F /  -0.7 °C 29.3 °F /  -1.5 °C 30.6in /  1037.2hPa Calm     94% 0in /  0.0mm 0 W/m2
23:50 30.7 °F /  -0.7 °C 29.3 °F /  -1.5 °C 30.6in /  1037.2hPa Calm     94% 0in /  0.0mm 0 W/m2
23:55 30.6 °F /  -0.8 °C 29.1 °F /  -1.6 °C 30.6in /  1037.2hPa Calm     94% 0in /  0.0mm 0 W/m2
Juneau County Weather
Compliments of Weather Underground - 4 mb